createdAt,value
2019-04-23T01:45:26.041Z,16.00
2019-04-23T01:55:26.329Z,17.70
2019-04-23T03:25:25.305Z,20.80
2019-04-23T03:50:35.819Z,19.40
2019-04-23T03:55:39.880Z,17.30
2019-04-23T04:05:42.158Z,19.30
2019-04-23T04:10:41.311Z,22.20
2019-04-23T04:25:26.925Z,24.90
2019-04-23T04:30:40.151Z,19.70
2019-04-23T04:35:27.225Z,23.30
2019-04-23T04:45:47.313Z,19.50
2019-04-23T04:50:24.246Z,20.10
2019-04-23T04:55:40.343Z,28.20
2019-04-23T05:00:45.635Z,21.00
2019-04-23T05:15:28.519Z,23.50
2019-04-23T05:25:28.070Z,20.90
2019-04-23T05:30:32.944Z,22.30
2019-04-23T05:40:42.865Z,21.80
2019-04-23T05:50:35.774Z,23.50
2019-04-23T06:00:32.269Z,24.40
2019-04-23T06:05:31.296Z,26.20
2019-04-23T06:10:29.017Z,24.20
2019-04-23T06:15:20.541Z,20.40
2019-04-23T06:30:35.233Z,25.70
2019-04-23T06:35:29.055Z,24.40
2019-04-23T06:40:26.649Z,26.60
2019-04-23T06:45:30.757Z,28.70
2019-04-23T06:50:27.137Z,31.70
2019-04-23T06:55:31.882Z,27.50
2019-04-23T07:05:25.255Z,24.90
2019-04-23T07:10:21.921Z,22.10
2019-04-23T07:15:30.837Z,23.80
2019-04-23T07:20:27.931Z,24.30
2019-04-23T07:25:22.386Z,24.90
2019-04-23T07:30:30.832Z,26.40
2019-04-23T07:35:21.194Z,23.90
2019-04-23T07:40:27.480Z,27.10
2019-04-23T07:45:30.993Z,29.00
2019-04-23T07:50:31.003Z,25.50
2019-04-23T07:55:37.656Z,26.30
2019-04-23T08:00:35.306Z,21.90
2019-04-23T08:05:26.792Z,24.50
2019-04-23T08:10:29.774Z,27.00
2019-04-23T08:15:33.530Z,26.30
2019-04-23T08:20:30.743Z,27.00
2019-04-23T08:25:17.769Z,31.90
2019-04-23T08:30:28.897Z,26.90
2019-04-23T08:35:21.288Z,26.30
2019-04-23T08:40:29.697Z,28.20
2019-04-23T08:45:26.725Z,28.10
2019-04-23T08:55:34.031Z,29.60
2019-04-23T09:00:33.795Z,27.80
2019-04-23T09:05:31.996Z,28.10
2019-04-23T09:10:19.613Z,25.60
2019-04-23T09:20:21.831Z,31.00
2019-04-23T09:25:34.694Z,26.30
2019-04-23T09:30:28.220Z,30.30
2019-04-23T09:35:24.057Z,28.20
2019-04-23T09:40:27.453Z,27.70
2019-04-23T09:50:29.866Z,30.20
2019-04-23T12:05:27.999Z,0.00
2019-04-23T12:10:44.139Z,37.30
2019-04-23T12:15:32.966Z,37.00
2019-04-23T12:20:33.583Z,35.80
2019-04-23T12:25:25.063Z,34.50
2019-04-23T12:30:33.938Z,46.30
2019-04-23T12:35:17.739Z,33.70
2019-04-23T12:40:35.941Z,43.70
2019-04-23T12:45:33.978Z,34.70
2019-04-23T12:55:39.095Z,37.90
2019-04-23T13:15:29.414Z,34.60
2019-04-23T13:20:23.666Z,36.80
2019-04-23T13:40:39.290Z,35.90
2019-04-23T13:50:43.284Z,37.20
2019-04-23T13:55:24.469Z,39.00
2019-04-23T14:00:44.928Z,35.30
2019-04-23T14:05:22.072Z,36.00
2019-04-23T14:10:34.185Z,35.20
2019-04-23T14:20:28.041Z,39.20
2019-04-23T14:25:15.944Z,37.80
2019-04-23T14:30:39.024Z,39.30
2019-04-23T14:40:34.339Z,40.00
2019-04-23T14:45:31.286Z,40.80
2019-04-23T14:50:29.294Z,37.50
2019-04-23T14:55:48.998Z,41.40
2019-04-23T15:00:35.739Z,44.10
2019-04-23T15:05:36.139Z,40.70
2019-04-23T15:10:34.585Z,39.90
2019-04-23T15:15:25.183Z,41.60
2019-04-23T15:20:29.793Z,40.40
2019-04-23T15:25:36.950Z,40.30
2019-04-23T15:30:20.817Z,46.50
2019-04-23T15:40:25.169Z,41.90
2019-04-23T15:45:28.242Z,49.80
2019-04-23T15:50:22.546Z,46.20
2019-04-23T15:55:20.851Z,52.80
2019-04-23T16:00:17.830Z,50.40
2019-04-23T16:05:01.796Z,45.10
2019-04-23T16:10:28.810Z,47.00
2019-04-23T16:15:26.528Z,46.40
2019-04-23T16:20:40.493Z,48.70
2019-04-23T16:25:23.132Z,46.90
2019-04-23T16:30:24.601Z,47.60
2019-04-23T16:35:32.932Z,47.70
2019-04-23T16:40:33.161Z,50.00
2019-04-23T16:45:25.603Z,49.20
2019-04-23T16:50:29.164Z,50.40
2019-04-23T16:55:29.356Z,49.90
2019-04-23T17:00:33.583Z,51.10
2019-04-23T17:05:35.989Z,50.30
2019-04-23T17:15:34.442Z,48.60
2019-04-23T17:20:30.721Z,48.90
2019-04-23T17:25:26.539Z,44.30
2019-04-23T17:35:27.418Z,44.40
2019-04-23T17:40:23.051Z,41.40
2019-04-23T17:45:32.073Z,41.90
2019-04-23T17:50:26.880Z,42.50
2019-04-23T18:00:34.095Z,39.40
2019-04-23T18:05:24.818Z,36.50
2019-04-23T18:10:38.655Z,34.10
2019-04-23T18:15:17.545Z,34.50
2019-04-23T18:20:35.164Z,36.20
2019-04-23T18:25:31.208Z,36.00
2019-04-23T18:30:28.849Z,37.10
2019-04-23T18:40:28.738Z,39.90
2019-04-23T18:45:41.642Z,41.20
2019-04-23T18:50:43.267Z,44.80
2019-04-23T18:55:43.674Z,44.30
2019-04-23T19:00:33.526Z,43.10
2019-04-23T19:05:34.026Z,42.60
2019-04-23T19:10:30.632Z,45.40
2019-04-23T19:15:37.121Z,46.00
2019-04-23T19:20:45.177Z,47.40
2019-04-23T19:25:25.949Z,50.50
2019-04-23T19:30:41.455Z,48.00
2019-04-23T19:35:55.273Z,51.30
2019-04-23T19:40:37.550Z,50.10
2019-04-23T19:45:24.621Z,56.80
2019-04-23T20:05:34.130Z,57.80
2019-04-23T20:10:37.442Z,56.20
2019-04-23T20:15:40.937Z,61.50
2019-04-23T20:20:39.841Z,62.00
2019-04-23T20:26:05.612Z,65.20
2019-04-23T20:30:56.898Z,61.20
2019-04-23T20:35:16.616Z,57.40
2019-04-23T20:40:39.707Z,57.50
2019-04-23T20:45:28.872Z,61.70
2019-04-23T20:50:19.154Z,64.70
2019-04-23T20:55:39.188Z,61.90
2019-04-23T21:00:28.649Z,61.70
2019-04-23T21:05:22.708Z,65.10
2019-04-23T21:10:34.533Z,63.60
2019-04-23T21:15:29.097Z,62.20
2019-04-23T21:20:29.462Z,62.30
2019-04-23T21:25:34.674Z,62.70
2019-04-23T21:30:39.167Z,60.10
2019-04-23T21:35:42.871Z,63.40
2019-04-23T21:45:28.705Z,61.20
2019-04-23T21:50:37.422Z,62.30
2019-04-23T21:55:40.371Z,61.60
2019-04-23T22:05:32.570Z,59.60
2019-04-23T22:10:31.853Z,66.60
2019-04-23T22:15:36.975Z,59.00
2019-04-23T22:20:33.531Z,63.30
2019-04-23T22:25:31.678Z,58.40
2019-04-23T22:30:30.299Z,57.90
2019-04-23T22:40:25.265Z,62.30
2019-04-23T22:45:27.511Z,59.20
2019-04-23T22:50:27.903Z,59.10
2019-04-23T22:55:23.153Z,61.90
2019-04-23T23:00:24.396Z,60.60
2019-04-23T23:05:42.840Z,61.80
2019-04-23T23:10:27.732Z,65.20
2019-04-23T23:15:30.292Z,58.40
2019-04-23T23:20:32.229Z,66.30
2019-04-23T23:30:37.729Z,59.50
2019-04-23T23:35:31.222Z,62.50
2019-04-23T23:40:47.611Z,60.70
2019-04-23T23:45:36.796Z,65.90
2019-04-23T23:50:36.505Z,58.90
